Řízení letového provozu České republiky  
Aktualizace dat:  13.11.2019 20:47:25 UTC English version
   METEO Zobrazení stránky:  13.11.2019 20:47:22 UTC  
vysvětlivky
METAR EDDB 132020Z 16006KT CAVOK 03/02 Q1003 NOSIG=
METAR EDDC 132020Z 19006KT CAVOK 03/02 Q1004 NOSIG=
METAR EDDE 132020Z 21008KT CAVOK 02/00 Q1003 NOSIG=
METAR EDDF 132020Z 18006KT 9999 OVC018 05/03 Q1005 NOSIG=
METAR EDDM 132020Z 21004KT CAVOK 03/01 Q1006 NOSIG=
METAR EDDN 132020Z 22004KT 9999 FEW030 05/02 Q1005 NOSIG=
METAR EDDP 132020Z 21008KT 9999 FEW027 05/01 Q1004 NOSIG=
METAR EDDT 132020Z 20005KT CAVOK 04/01 Q1003 NOSIG=
METAR EDQM 131850Z 21009KT 9999 BKN018 OVC049 02/00 Q1003=
METAR EPBY 132030Z 29010KT 6000 -RA SCT003 OVC005 04/04 Q1002=
METAR EPGD 132030Z 30009KT 9999 -RA OVC003 05/04 Q1001=
METAR EPKK 132030Z 24011KT 8000 BKN005 06/05 Q1003=
METAR EPKT 132030Z 25010KT 9999 -RA BKN004 05/04 Q1003=
METAR EPLL 132030Z 27007KT 6000 -RA OVC004 06/06 Q1002=
METAR EPPO 132030Z 30004KT 8000 -RA BKN013 04/03 Q1003=
METAR EPRZ 132030Z 09010KT CAVOK 12/09 Q1003=
METAR EPWA 132030Z 15010KT CAVOK 13/10 Q1001 NOSIG=
METAR EPWR 132030Z 27007KT 240V300 9999 -RA FEW006 BKN008 02/02 Q1005 =
METAR LHBP 132030Z 32011KT 9999 FEW009 SCT020 BKN070 08/06 Q1005 NOSIG=
METAR LHSM 132015Z AUTO 35008KT 330V030 9999 OVC032 05/04 Q1008=
METAR LKBC 132030Z AUTO 08002KT 4300 BR FEW006 BKN088 OVC160 01/M00 Q1006=
METAR LKCV 132000Z 20003KT 160V220 9999 BKN026 OVC045 02/01 Q1006 NOSIG RMK BLU BLU=
METAR LKKB 132000Z 19007KT 9999 FEW008 SCT023 BKN070 03/02 Q1005 NOSIG RMK BLU BLU=
METAR LKKU NIL
METAR LKKV 132000Z 08003KT 9999 SCT027 M01/M01 Q1004 RMK REG QNH 1000=
SPECI LKLN 132034Z AUTO 00000KT 2900 BR ///////// 01/01 Q1006=
METAR LKMT 132030Z 20002KT 4000 -RA BR FEW005 OVC013 04/03 Q1005 NOSIG RMK REG QNH 1000=
METAR LKNA 132000Z 28010KT CAVOK 02/02 Q1005 NOSIG RMK BLU BLU=
METAR LKPD 132000Z 24005KT 9999 OVC010 02/02 Q1006 NOSIG RMK GRN GRN=
METAR LKPJ 132000Z AUTO 30003KT 9999 -RA FEW014 OVC025 ///// Q////=
SPECI LKPR 132034Z 22008KT 9999 SCT009 02/01 Q1005 RMK REG QNH 1000=
METAR LKTB 132030Z 27009KT 9999 -RA FEW013 03/02 Q1006 NOSIG RMK REG QNH 1000=
METAR LKVO NIL
METAR LOWI 132020Z 27003KT 9999 SCT005 BKN010 01/00 Q1008 R08/29//95 NOSIG=
METAR LOWL 132020Z AUTO 06003KT 7000 FEW020 SCT024 BKN150 02/02 Q1008 TEMPO 4500 BR=
METAR LOWS 132020Z 14009KT CAVOK 01/01 Q1008 NOSIG=
METAR LOWW 132020Z 29009KT CAVOK 04/02 Q1008 NOSIG=
METAR LZIB 132030Z 29010KT 260V330 9999 FEW011 SCT015 BKN055 05/02 Q1007=
METAR LZKZ 132030Z 21006KT 9999 -RA NSC 15/10 Q1005=
METAR LZMC 132000Z 26004KT 9999 -RA SCT015 OVC060 04/03 Q1007=
METAR LZPP 132030Z AUTO 33008KT 9999 OVC013/// 05/03 Q1006=
METAR LZSL 132030Z 19006KT 9999 OVC014 10/08 Q1004=
METAR LZTT 132030Z 14003KT 120V180 9999 -RA OVC023 10/09 Q1004=
METAR LZZI 132030Z 24014KT 9999 -RA BKN010 OVC043 06/04 Q1004=